createdAt,value
2023-05-10T00:01:07.265Z,5.78
2023-05-10T00:03:35.021Z,5.70
2023-05-10T00:06:02.752Z,5.62
2023-05-10T00:08:30.543Z,5.54
2023-05-10T00:10:58.502Z,5.46
2023-05-10T00:13:26.381Z,5.38
2023-05-10T00:15:54.233Z,5.27
2023-05-10T00:18:22.351Z,5.18
2023-05-10T00:20:50.205Z,5.09
2023-05-10T00:23:18.009Z,5.02
2023-05-10T00:25:45.764Z,4.95
2023-05-10T00:28:13.619Z,4.86
2023-05-10T00:30:41.257Z,4.78
2023-05-10T00:33:09.002Z,4.68
2023-05-10T00:35:36.982Z,4.60
2023-05-10T00:38:04.793Z,4.55
2023-05-10T00:40:32.598Z,4.51
2023-05-10T00:43:04.078Z,4.45
2023-05-10T00:45:34.122Z,4.38
2023-05-10T00:48:05.474Z,4.31
2023-05-10T00:50:33.907Z,4.26
2023-05-10T00:53:02.916Z,4.20
2023-05-10T00:55:31.444Z,4.17
2023-05-10T00:57:59.803Z,4.11
2023-05-10T01:00:27.658Z,4.07
2023-05-10T01:02:55.562Z,4.00
2023-05-10T01:05:23.872Z,3.95
2023-05-10T01:07:51.983Z,3.89
2023-05-10T01:10:19.804Z,3.83
2023-05-10T01:12:48.545Z,3.79
2023-05-10T01:15:19.039Z,3.76
2023-05-10T01:17:49.186Z,3.72
2023-05-10T01:20:17.307Z,3.68
2023-05-10T01:23:07.181Z,3.66
2023-05-10T01:25:56.123Z,3.60
2023-05-10T01:28:29.782Z,3.56
2023-05-10T01:31:32.937Z,3.52
2023-05-10T01:34:08.496Z,3.44
2023-05-10T01:36:49.520Z,3.36
2023-05-10T01:39:32.086Z,3.33
2023-05-10T01:42:11.127Z,3.31
2023-05-10T01:44:54.294Z,3.29
2023-05-10T01:47:47.910Z,3.24
2023-05-10T01:50:29.691Z,3.21
2023-05-10T01:53:00.128Z,3.13
2023-05-10T01:55:33.142Z,3.09
2023-05-10T01:58:11.153Z,3.05
2023-05-10T02:00:45.507Z,3.02
2023-05-10T02:03:15.907Z,2.99
2023-05-10T02:05:47.061Z,2.97
2023-05-10T02:08:16.785Z,2.96
2023-05-10T02:10:45.889Z,2.92
2023-05-10T02:13:15.188Z,2.88
2023-05-10T02:15:44.384Z,2.84
2023-05-10T02:18:14.629Z,2.80
2023-05-10T02:20:44.226Z,2.78
2023-05-10T02:23:12.496Z,2.75
2023-05-10T02:25:42.732Z,2.73
2023-05-10T02:28:13.084Z,2.70
2023-05-10T02:30:41.471Z,2.65
2023-05-10T02:33:09.734Z,2.62
2023-05-10T02:35:40.354Z,2.61
2023-05-10T02:38:12.744Z,2.59
2023-05-10T02:40:42.405Z,2.56
2023-05-10T02:43:13.153Z,2.54
2023-05-10T02:45:41.934Z,2.49
2023-05-10T02:48:11.237Z,2.47
2023-05-10T02:50:44.217Z,2.41
2023-05-10T02:53:20.247Z,2.37
2023-05-10T02:55:52.809Z,2.36
2023-05-10T02:58:20.674Z,2.33
2023-05-10T03:00:48.728Z,2.28
2023-05-10T03:03:16.411Z,2.22
2023-05-10T03:05:44.136Z,2.19
2023-05-10T03:08:12.163Z,2.15
2023-05-10T03:10:55.593Z,2.08
2023-05-10T03:13:36.903Z,2.07
2023-05-10T03:16:16.435Z,2.07
2023-05-10T03:19:11.182Z,2.09
2023-05-10T03:21:42.699Z,2.11
2023-05-10T03:24:13.440Z,2.11
2023-05-10T03:26:47.202Z,2.12
2023-05-10T03:29:18.444Z,2.13
2023-05-10T03:31:46.473Z,2.15
2023-05-10T03:34:15.481Z,2.18
2023-05-10T03:36:43.188Z,2.24
2023-05-10T03:39:11.486Z,2.33
2023-05-10T03:41:39.244Z,2.44
2023-05-10T03:44:06.976Z,2.55
2023-05-10T03:46:34.797Z,2.67
2023-05-10T03:49:04.153Z,2.81
2023-05-10T03:51:32.201Z,2.94
2023-05-10T03:54:00.241Z,3.05
2023-05-10T03:56:28.234Z,3.16
2023-05-10T03:58:56.056Z,3.29
2023-05-10T04:01:23.720Z,3.45
2023-05-10T04:03:51.473Z,3.56
2023-05-10T04:06:19.337Z,3.72
2023-05-10T04:08:47.087Z,3.88
2023-05-10T04:11:15.279Z,4.02
2023-05-10T04:13:44.004Z,4.17
2023-05-10T04:16:11.746Z,4.34
2023-05-10T04:18:40.632Z,4.49
2023-05-10T04:21:14.701Z,4.64
2023-05-10T04:23:42.498Z,4.79
2023-05-10T04:26:10.458Z,4.93
2023-05-10T04:28:38.857Z,5.05
2023-05-10T04:31:08.339Z,5.18
2023-05-10T04:33:37.442Z,5.32
2023-05-10T04:36:05.651Z,5.47
2023-05-10T04:38:33.391Z,5.62
2023-05-10T04:41:11.321Z,5.78
2023-05-10T04:43:39.505Z,5.93
2023-05-10T04:46:10.556Z,6.09
2023-05-10T04:48:38.252Z,6.23
2023-05-10T04:51:07.578Z,6.39
2023-05-10T04:53:35.261Z,6.54
2023-05-10T04:56:03.186Z,6.71
2023-05-10T04:58:31.026Z,6.88
2023-05-10T05:01:05.504Z,7.04
2023-05-10T05:03:33.831Z,7.20
2023-05-10T05:06:01.641Z,7.36
2023-05-10T05:08:29.327Z,7.53
2023-05-10T05:10:56.961Z,7.69
2023-05-10T05:13:24.864Z,7.85
2023-05-10T05:15:54.599Z,8.01
2023-05-10T05:18:22.325Z,8.20
2023-05-10T05:20:50.096Z,8.37
2023-05-10T05:23:17.924Z,8.50
2023-05-10T05:25:45.813Z,8.65
2023-05-10T05:28:13.440Z,8.81
2023-05-10T05:30:41.147Z,8.96
2023-05-10T05:33:08.838Z,9.12
2023-05-10T05:35:36.617Z,9.27
2023-05-10T05:38:04.497Z,9.43
2023-05-10T05:40:32.479Z,9.58
2023-05-10T05:43:00.275Z,9.74
2023-05-10T05:45:27.902Z,9.88
2023-05-10T05:47:55.786Z,10.03
2023-05-10T05:50:23.659Z,10.17
2023-05-10T05:52:52.140Z,10.29
2023-05-10T05:55:20.143Z,10.43
2023-05-10T05:57:47.799Z,10.61
2023-05-10T06:00:16.362Z,10.78
2023-05-10T06:02:44.173Z,10.93
2023-05-10T06:05:12.047Z,11.08
2023-05-10T06:07:42.816Z,11.26
2023-05-10T06:10:11.294Z,11.46
2023-05-10T06:12:38.969Z,11.66
2023-05-10T06:15:07.403Z,11.83
2023-05-10T06:17:35.095Z,11.97
2023-05-10T06:20:02.926Z,12.12
2023-05-10T06:22:30.617Z,12.31
2023-05-10T06:24:58.286Z,12.44
2023-05-10T06:27:25.904Z,12.62
2023-05-10T06:30:02.214Z,12.80
2023-05-10T06:32:37.144Z,12.96
2023-05-10T06:35:05.201Z,13.10
2023-05-10T06:37:32.906Z,13.21
2023-05-10T06:40:00.692Z,13.32
2023-05-10T06:42:28.445Z,13.42
2023-05-10T06:44:56.070Z,13.49
2023-05-10T06:47:24.395Z,13.57
2023-05-10T06:49:52.193Z,13.64
2023-05-10T06:52:19.892Z,13.72
2023-05-10T06:54:47.543Z,13.79
2023-05-10T06:57:27.638Z,13.86
2023-05-10T06:59:59.992Z,13.92
2023-05-10T07:02:27.790Z,13.94
2023-05-10T07:04:55.706Z,13.98
2023-05-10T07:07:23.555Z,14.11
2023-05-10T07:09:52.132Z,14.23
2023-05-10T07:12:20.862Z,14.31
2023-05-10T07:14:48.640Z,14.42
2023-05-10T07:17:16.583Z,14.57
2023-05-10T07:19:44.861Z,14.57
2023-05-10T07:22:12.544Z,14.61
2023-05-10T07:24:40.526Z,14.68
2023-05-10T07:27:08.198Z,14.69
2023-05-10T07:29:37.131Z,14.78
2023-05-10T07:32:04.992Z,14.83
2023-05-10T07:34:32.819Z,14.89
2023-05-10T07:37:00.614Z,14.98
2023-05-10T07:39:28.794Z,15.05
2023-05-10T07:41:56.990Z,15.14
2023-05-10T07:44:24.752Z,15.32
2023-05-10T07:46:53.150Z,15.45
2023-05-10T07:49:20.941Z,15.50
2023-05-10T07:51:48.845Z,15.49
2023-05-10T07:54:18.190Z,15.51
2023-05-10T07:56:48.014Z,15.47
2023-05-10T07:59:17.970Z,15.51
2023-05-10T08:01:46.233Z,15.47
2023-05-10T08:04:14.046Z,15.46
2023-05-10T08:06:41.954Z,15.53
2023-05-10T08:09:10.337Z,15.62
2023-05-10T08:11:38.096Z,15.75
2023-05-10T08:14:05.847Z,15.79
2023-05-10T08:16:33.618Z,15.88
2023-05-10T08:19:01.456Z,16.03
2023-05-10T08:21:29.558Z,16.12
2023-05-10T08:23:57.289Z,16.18
2023-05-10T08:26:25.313Z,16.25
2023-05-10T08:28:53.123Z,16.25
2023-05-10T08:31:20.881Z,16.32
2023-05-10T08:33:48.709Z,16.44
2023-05-10T08:36:20.660Z,16.49
2023-05-10T08:38:54.385Z,16.59
2023-05-10T08:41:24.774Z,16.67
2023-05-10T08:43:54.467Z,16.68
2023-05-10T08:46:23.671Z,16.68
2023-05-10T08:48:52.718Z,16.85
2023-05-10T08:51:24.697Z,17.04
2023-05-10T08:53:52.556Z,17.25
2023-05-10T08:56:21.740Z,17.41
2023-05-10T08:58:50.724Z,17.49
2023-05-10T09:01:20.357Z,17.60
2023-05-10T09:03:49.194Z,17.80
2023-05-10T09:06:17.211Z,18.00
2023-05-10T09:08:46.696Z,18.18
2023-05-10T09:11:15.286Z,18.28
2023-05-10T09:13:45.070Z,18.46
2023-05-10T09:16:21.226Z,18.76
2023-05-10T09:18:50.554Z,18.87
2023-05-10T09:21:19.418Z,19.09
2023-05-10T09:23:48.664Z,19.25
2023-05-10T09:26:17.249Z,19.58
2023-05-10T09:28:56.379Z,19.77
2023-05-10T09:31:25.959Z,19.89
2023-05-10T09:33:54.206Z,20.09
2023-05-10T09:36:21.862Z,20.15
2023-05-10T09:38:52.917Z,20.06
2023-05-10T09:41:22.680Z,20.23
2023-05-10T09:43:50.853Z,20.53
2023-05-10T09:46:18.728Z,20.55
2023-05-10T09:48:50.616Z,20.68
2023-05-10T09:51:25.783Z,20.44
2023-05-10T09:54:10.192Z,20.36
2023-05-10T09:56:41.096Z,20.05
2023-05-10T09:59:13.521Z,20.00
2023-05-10T10:01:42.085Z,20.30
2023-05-10T10:04:10.840Z,20.37
2023-05-10T10:06:42.284Z,20.67
2023-05-10T10:09:10.637Z,20.73
2023-05-10T10:11:39.998Z,20.75
2023-05-10T10:14:07.650Z,20.58
2023-05-10T10:16:35.965Z,20.66
2023-05-10T10:19:03.832Z,20.82
2023-05-10T10:21:32.545Z,20.77
2023-05-10T10:24:00.372Z,20.87
2023-05-10T10:26:28.472Z,21.06
2023-05-10T10:29:40.384Z,21.27
2023-05-10T10:32:27.549Z,21.47
2023-05-10T10:34:57.148Z,21.35
2023-05-10T10:37:35.411Z,21.27
2023-05-10T10:40:33.622Z,21.42
2023-05-10T10:43:31.273Z,21.66
2023-05-10T10:46:18.806Z,22.07
2023-05-10T10:48:53.224Z,22.13
2023-05-10T10:51:21.112Z,22.13
2023-05-10T10:53:49.415Z,22.09
2023-05-10T10:56:24.567Z,22.09
2023-05-10T10:58:54.149Z,22.14
2023-05-10T11:01:22.215Z,22.27
2023-05-10T11:04:18.581Z,22.08
2023-05-10T11:06:46.317Z,21.96
2023-05-10T11:09:14.347Z,21.80
2023-05-10T11:11:59.650Z,21.51
2023-05-10T11:14:27.528Z,21.70
2023-05-10T11:16:55.493Z,21.75
2023-05-10T11:19:28.756Z,21.67
2023-05-10T11:22:05.447Z,21.25
2023-05-10T11:24:34.378Z,21.06
2023-05-10T11:27:02.208Z,21.00
2023-05-10T11:29:30.013Z,20.78
2023-05-10T11:31:59.655Z,20.70
2023-05-10T11:34:34.300Z,20.69
2023-05-10T11:37:02.345Z,20.75
2023-05-10T11:39:32.753Z,20.91
2023-05-10T11:42:01.175Z,20.91
2023-05-10T11:44:32.899Z,21.05
2023-05-10T11:47:02.572Z,20.97
2023-05-10T11:49:31.198Z,20.94
2023-05-10T11:52:08.939Z,20.95
2023-05-10T11:54:36.821Z,20.74
2023-05-10T11:57:05.064Z,20.45
2023-05-10T11:59:32.806Z,20.34
2023-05-10T12:02:00.808Z,20.14
2023-05-10T12:04:30.547Z,20.10
2023-05-10T12:06:58.946Z,19.83
2023-05-10T12:09:39.538Z,19.72
2023-05-10T12:12:11.752Z,19.64
2023-05-10T12:14:39.515Z,19.55
2023-05-10T12:17:07.278Z,19.53
2023-05-10T12:19:42.178Z,19.54
2023-05-10T12:22:09.818Z,19.48
2023-05-10T12:24:39.349Z,19.34
2023-05-10T12:27:09.441Z,19.30
2023-05-10T12:29:37.543Z,19.32
2023-05-10T12:32:05.301Z,19.24
2023-05-10T12:34:35.282Z,19.21
2023-05-10T12:37:04.451Z,19.19
2023-05-10T12:39:42.354Z,19.12
2023-05-10T12:42:11.117Z,18.97
2023-05-10T12:44:39.556Z,18.96
2023-05-10T12:47:07.285Z,18.94
2023-05-10T12:49:35.246Z,19.04
2023-05-10T12:52:03.611Z,18.97
2023-05-10T12:54:31.417Z,18.86
2023-05-10T12:56:59.141Z,18.91
2023-05-10T12:59:26.827Z,18.91
2023-05-10T13:01:54.546Z,18.89
2023-05-10T13:04:23.891Z,18.97
2023-05-10T13:06:51.910Z,19.00
2023-05-10T13:09:19.930Z,19.11
2023-05-10T13:11:49.033Z,19.16
2023-05-10T13:14:16.678Z,19.07
2023-05-10T13:16:44.313Z,19.01
2023-05-10T13:19:12.513Z,18.91
2023-05-10T13:21:43.730Z,18.88
2023-05-10T13:24:14.646Z,18.75
2023-05-10T13:26:42.355Z,18.70
2023-05-10T13:29:10.386Z,18.72
2023-05-10T13:31:38.137Z,18.68
2023-05-10T13:34:07.190Z,18.61
2023-05-10T13:36:34.958Z,18.52
2023-05-10T13:39:04.485Z,18.67
2023-05-10T13:41:32.435Z,18.72
2023-05-10T13:44:00.074Z,18.78
2023-05-10T13:46:27.822Z,18.86
2023-05-10T13:48:55.578Z,18.87
2023-05-10T13:51:23.940Z,18.80
2023-05-10T13:53:51.669Z,18.75
2023-05-10T13:56:19.351Z,18.70
2023-05-10T13:58:47.418Z,18.59
2023-05-10T14:01:15.486Z,18.49
2023-05-10T14:03:43.374Z,18.37
2023-05-10T14:06:11.396Z,18.18
2023-05-10T14:08:39.022Z,18.16
2023-05-10T14:11:06.732Z,18.12
2023-05-10T14:13:34.657Z,18.06
2023-05-10T14:16:02.642Z,18.03
2023-05-10T14:18:30.427Z,17.89
2023-05-10T14:20:58.471Z,17.93
2023-05-10T14:23:26.745Z,17.97
2023-05-10T14:25:54.669Z,18.07
2023-05-10T14:28:23.663Z,18.14
2023-05-10T14:30:51.695Z,18.07
2023-05-10T14:33:19.409Z,17.92
2023-05-10T14:35:48.424Z,17.84
2023-05-10T14:38:16.132Z,17.80
2023-05-10T14:40:44.221Z,17.65
2023-05-10T14:43:11.973Z,17.56
2023-05-10T14:45:39.653Z,17.59
2023-05-10T14:48:07.794Z,17.59
2023-05-10T14:50:37.299Z,17.59
2023-05-10T14:53:05.758Z,17.66
2023-05-10T14:55:33.848Z,17.66
2023-05-10T14:58:03.812Z,17.71
2023-05-10T15:00:32.014Z,17.77
2023-05-10T15:03:00.262Z,17.81
2023-05-10T15:05:28.280Z,17.82
2023-05-10T15:07:56.883Z,17.82
2023-05-10T15:10:24.632Z,17.86
2023-05-10T15:12:52.454Z,17.83
2023-05-10T15:15:20.301Z,17.80
2023-05-10T15:17:49.189Z,17.73
2023-05-10T15:20:17.080Z,17.67
2023-05-10T15:22:44.839Z,17.59
2023-05-10T15:25:12.561Z,17.56
2023-05-10T15:27:40.447Z,17.53
2023-05-10T15:30:09.376Z,17.53
2023-05-10T15:32:38.052Z,17.53
2023-05-10T15:35:06.327Z,17.55
2023-05-10T15:37:34.020Z,17.50
2023-05-10T15:40:04.965Z,17.43
2023-05-10T15:42:33.496Z,17.31
2023-05-10T15:45:01.184Z,17.25
2023-05-10T15:47:30.825Z,17.24
2023-05-10T15:49:58.616Z,17.23
2023-05-10T15:52:26.380Z,17.21
2023-05-10T15:54:54.064Z,17.18
2023-05-10T15:57:21.778Z,17.14
2023-05-10T15:59:49.631Z,17.11
2023-05-10T16:02:19.330Z,17.05
2023-05-10T16:04:47.261Z,17.00
2023-05-10T16:07:14.956Z,16.96
2023-05-10T16:09:42.731Z,16.92
2023-05-10T16:12:10.847Z,16.85
2023-05-10T16:14:38.569Z,16.72
2023-05-10T16:17:06.444Z,16.68
2023-05-10T16:19:34.340Z,16.64
2023-05-10T16:22:02.294Z,16.60
2023-05-10T16:24:30.331Z,16.61
2023-05-10T16:26:58.249Z,16.56
2023-05-10T16:29:26.232Z,16.51
2023-05-10T16:31:54.136Z,16.44
2023-05-10T16:34:24.276Z,16.35
2023-05-10T16:36:52.012Z,16.33
2023-05-10T16:39:19.712Z,16.29
2023-05-10T16:41:47.420Z,16.27
2023-05-10T16:44:15.157Z,16.22
2023-05-10T16:46:43.788Z,16.17
2023-05-10T16:49:12.374Z,16.10
2023-05-10T16:51:40.951Z,16.06
2023-05-10T16:54:08.691Z,16.00
2023-05-10T16:56:36.319Z,16.01
2023-05-10T16:59:03.941Z,15.94
2023-05-10T17:01:31.785Z,15.88
2023-05-10T17:03:59.564Z,15.85
2023-05-10T17:06:27.360Z,15.78
2023-05-10T17:08:55.017Z,15.75
2023-05-10T17:11:22.704Z,15.74
2023-05-10T17:13:52.423Z,15.67
2023-05-10T17:16:21.506Z,15.56
2023-05-10T17:18:49.467Z,15.52
2023-05-10T17:21:17.216Z,15.45
2023-05-10T17:23:44.954Z,15.39
2023-05-10T17:26:12.876Z,15.31
2023-05-10T17:28:40.628Z,15.21
2023-05-10T17:31:08.669Z,15.18
2023-05-10T17:33:36.318Z,15.09
2023-05-10T17:36:04.158Z,15.06
2023-05-10T17:38:32.111Z,15.02
2023-05-10T17:40:59.740Z,14.93
2023-05-10T17:43:27.440Z,14.83
2023-05-10T17:45:55.162Z,14.78
2023-05-10T17:48:23.252Z,14.72
2023-05-10T17:50:51.570Z,14.64
2023-05-10T17:53:19.520Z,14.57
2023-05-10T17:55:49.650Z,14.50
2023-05-10T17:58:17.433Z,14.44
2023-05-10T18:00:45.212Z,14.39
2023-05-10T18:03:13.000Z,14.32
2023-05-10T18:05:41.001Z,14.26
2023-05-10T18:08:08.806Z,14.19
2023-05-10T18:10:39.296Z,14.11
2023-05-10T18:13:09.007Z,14.02
2023-05-10T18:15:37.509Z,13.94
2023-05-10T18:18:05.252Z,13.88
2023-05-10T18:20:33.079Z,13.78
2023-05-10T18:23:00.739Z,13.69
2023-05-10T18:25:28.625Z,13.63
2023-05-10T18:27:56.386Z,13.53
2023-05-10T18:30:24.127Z,13.47
2023-05-10T18:32:52.015Z,13.37
2023-05-10T18:35:20.024Z,13.29
2023-05-10T18:37:48.701Z,13.21
2023-05-10T18:40:17.463Z,13.12
2023-05-10T18:42:46.656Z,13.05
2023-05-10T18:45:14.667Z,12.95
2023-05-10T18:47:43.025Z,12.87
2023-05-10T18:50:11.110Z,12.78
2023-05-10T18:52:38.857Z,12.68
2023-05-10T18:55:07.181Z,12.62
2023-05-10T18:57:41.039Z,12.54
2023-05-10T19:00:10.504Z,12.44
2023-05-10T19:02:39.774Z,12.36
2023-05-10T19:05:07.741Z,12.29
2023-05-10T19:07:35.565Z,12.19
2023-05-10T19:10:03.399Z,12.09
2023-05-10T19:12:31.204Z,12.01
2023-05-10T19:14:58.979Z,11.93
2023-05-10T19:17:26.775Z,11.84
2023-05-10T19:19:57.025Z,11.76
2023-05-10T19:22:35.393Z,11.69
2023-05-10T19:25:13.303Z,11.60
2023-05-10T19:27:41.246Z,11.51
2023-05-10T19:30:09.567Z,11.44
2023-05-10T19:32:37.335Z,11.37
2023-05-10T19:35:05.713Z,11.29
2023-05-10T19:37:33.474Z,11.24
2023-05-10T19:40:01.493Z,11.17
2023-05-10T19:42:29.165Z,11.10
2023-05-10T19:44:59.260Z,11.05
2023-05-10T19:47:26.925Z,11.01
2023-05-10T19:49:54.616Z,10.97
2023-05-10T19:52:22.792Z,10.94
2023-05-10T19:54:50.472Z,10.89
2023-05-10T19:57:18.237Z,10.89
2023-05-10T19:59:45.986Z,10.86
2023-05-10T20:02:13.969Z,10.85
2023-05-10T20:04:41.714Z,10.83
2023-05-10T20:07:09.464Z,10.81
2023-05-10T20:09:37.102Z,10.80
2023-05-10T20:12:04.830Z,10.76
2023-05-10T20:14:32.544Z,10.74
2023-05-10T20:17:00.398Z,10.67
2023-05-10T20:19:28.058Z,10.65
2023-05-10T20:21:58.843Z,10.64
2023-05-10T20:24:26.653Z,10.63
2023-05-10T20:26:54.693Z,10.61
2023-05-10T20:29:22.437Z,10.61
2023-05-10T20:31:50.180Z,10.59
2023-05-10T20:34:18.088Z,10.57
2023-05-10T20:36:45.814Z,10.55
2023-05-10T20:39:14.248Z,10.51
2023-05-10T20:41:42.205Z,10.50
2023-05-10T20:44:09.924Z,10.48
2023-05-10T20:46:37.846Z,10.48
2023-05-10T20:49:05.608Z,10.48
2023-05-10T20:51:33.441Z,10.46
2023-05-10T20:54:04.471Z,10.44
2023-05-10T20:56:32.132Z,10.42
2023-05-10T20:58:59.834Z,10.41
2023-05-10T21:01:27.596Z,10.39
2023-05-10T21:03:55.351Z,10.39
2023-05-10T21:06:23.036Z,10.39
2023-05-10T21:08:50.652Z,10.36
2023-05-10T21:11:18.268Z,10.33
2023-05-10T21:13:45.921Z,10.31
2023-05-10T21:16:13.800Z,10.27
2023-05-10T21:18:41.538Z,10.24
2023-05-10T21:21:09.607Z,10.19
2023-05-10T21:23:37.443Z,10.16
2023-05-10T21:26:05.222Z,10.12
2023-05-10T21:28:32.876Z,10.10
2023-05-10T21:31:00.509Z,10.08
2023-05-10T21:33:28.330Z,10.05
2023-05-10T21:35:56.817Z,10.01
2023-05-10T21:38:24.715Z,9.95
2023-05-10T21:40:52.356Z,9.94
2023-05-10T21:43:20.610Z,9.91
2023-05-10T21:45:48.253Z,9.90
2023-05-10T21:48:15.936Z,9.87
2023-05-10T21:50:43.827Z,9.87
2023-05-10T21:53:11.836Z,9.83
2023-05-10T21:55:39.521Z,9.79
2023-05-10T21:58:07.340Z,9.76
2023-05-10T22:00:35.594Z,9.75
2023-05-10T22:03:03.425Z,9.70
2023-05-10T22:05:31.283Z,9.65
2023-05-10T22:07:59.189Z,9.63
2023-05-10T22:10:26.816Z,9.57
2023-05-10T22:12:54.507Z,9.52
2023-05-10T22:15:22.233Z,9.46
2023-05-10T22:17:50.490Z,9.42
2023-05-10T22:20:18.585Z,9.39
2023-05-10T22:22:46.583Z,9.34
2023-05-10T22:25:14.582Z,9.29
2023-05-10T22:27:42.385Z,9.25
2023-05-10T22:30:10.767Z,9.20
2023-05-10T22:32:38.510Z,9.18
2023-05-10T22:35:07.098Z,9.14
2023-05-10T22:37:34.720Z,9.11
2023-05-10T22:40:02.467Z,9.06
2023-05-10T22:42:30.155Z,9.05
2023-05-10T22:44:58.741Z,9.01
2023-05-10T22:47:26.476Z,8.97
2023-05-10T22:49:55.296Z,8.96
2023-05-10T22:52:22.886Z,8.91
2023-05-10T22:54:50.834Z,8.89
2023-05-10T22:57:18.704Z,8.88
2023-05-10T22:59:48.113Z,8.83
2023-05-10T23:02:16.280Z,8.80
2023-05-10T23:04:44.180Z,8.77
2023-05-10T23:07:12.182Z,8.74
2023-05-10T23:09:39.923Z,8.73
2023-05-10T23:12:07.738Z,8.71
2023-05-10T23:14:35.529Z,8.70
2023-05-10T23:17:03.269Z,8.65
2023-05-10T23:19:31.019Z,8.62
2023-05-10T23:21:59.513Z,8.57
2023-05-10T23:24:27.178Z,8.55
2023-05-10T23:26:54.899Z,8.50
2023-05-10T23:29:23.943Z,8.47
2023-05-10T23:31:51.850Z,8.43
2023-05-10T23:34:19.610Z,8.39
2023-05-10T23:36:47.354Z,8.35
2023-05-10T23:39:15.436Z,8.33
2023-05-10T23:41:43.145Z,8.29
2023-05-10T23:44:10.789Z,8.25
2023-05-10T23:46:38.417Z,8.21
2023-05-10T23:49:06.224Z,8.16
2023-05-10T23:51:34.002Z,8.13
2023-05-10T23:54:02.106Z,8.13
2023-05-10T23:56:29.764Z,8.11
2023-05-10T23:58:57.630Z,8.07
